sensor_id;sensor_type;location;lat;lon;timestamp;pressure;altitude;pressure_sealevel;temperature;humidity
6144;BME280;3103;49.492;8.474;2022-12-11T00:00:14;99989.63;;;1.01;72.23
6144;BME280;3103;49.492;8.474;2022-12-11T00:02:41;99987.16;;;0.99;72.91
6144;BME280;3103;49.492;8.474;2022-12-11T00:05:08;99990.16;;;0.96;72.93
6144;BME280;3103;49.492;8.474;2022-12-11T00:07:36;99992.63;;;0.98;73.88
6144;BME280;3103;49.492;8.474;2022-12-11T00:10:03;99992.63;;;1.19;73.13
6144;BME280;3103;49.492;8.474;2022-12-11T00:12:30;100001.91;;;1.30;72.67
6144;BME280;3103;49.492;8.474;2022-12-11T00:14:58;100000.50;;;1.34;72.15
6144;BME280;3103;49.492;8.474;2022-12-11T00:17:25;100001.41;;;1.41;71.62
6144;BME280;3103;49.492;8.474;2022-12-11T00:19:51;100000.19;;;1.22;71.73
6144;BME280;3103;49.492;8.474;2022-12-11T00:22:18;99993.66;;;1.18;72.38
6144;BME280;3103;49.492;8.474;2022-12-11T00:24:45;100001.88;;;1.08;72.62
6144;BME280;3103;49.492;8.474;2022-12-11T00:27:12;100001.06;;;1.08;73.14
6144;BME280;3103;49.492;8.474;2022-12-11T00:29:39;99994.59;;;1.10;73.26
6144;BME280;3103;49.492;8.474;2022-12-11T00:32:06;100001.13;;;1.36;71.44
6144;BME280;3103;49.492;8.474;2022-12-11T00:34:32;100008.84;;;1.31;71.27
6144;BME280;3103;49.492;8.474;2022-12-11T00:37:01;100008.91;;;1.16;72.64
6144;BME280;3103;49.492;8.474;2022-12-11T00:39:27;100006.19;;;1.09;73.15
6144;BME280;3103;49.492;8.474;2022-12-11T00:41:54;100004.00;;;1.13;74.03
6144;BME280;3103;49.492;8.474;2022-12-11T00:44:21;99995.41;;;1.32;73.04
6144;BME280;3103;49.492;8.474;2022-12-11T00:46:48;99997.97;;;1.26;72.91
6144;BME280;3103;49.492;8.474;2022-12-11T00:49:15;99998.28;;;1.37;71.44
6144;BME280;3103;49.492;8.474;2022-12-11T00:51:42;100000.75;;;1.39;71.53
6144;BME280;3103;49.492;8.474;2022-12-11T00:54:08;99997.09;;;1.40;71.22
6144;BME280;3103;49.492;8.474;2022-12-11T00:56:35;99985.56;;;1.26;71.70
6144;BME280;3103;49.492;8.474;2022-12-11T00:59:02;99989.56;;;1.15;72.37
6144;BME280;3103;49.492;8.474;2022-12-11T01:01:28;99982.81;;;1.34;73.60
6144;BME280;3103;49.492;8.474;2022-12-11T01:03:55;99993.06;;;1.44;72.47
6144;BME280;3103;49.492;8.474;2022-12-11T01:06:24;99985.22;;;1.29;72.33
6144;BME280;3103;49.492;8.474;2022-12-11T01:08:52;99992.56;;;1.34;73.26
6144;BME280;3103;49.492;8.474;2022-12-11T01:11:41;99992.13;;;1.30;72.86
6144;BME280;3103;49.492;8.474;2022-12-11T01:14:09;99983.75;;;1.27;72.57
6144;BME280;3103;49.492;8.474;2022-12-11T01:16:36;99993.06;;;1.23;72.60
6144;BME280;3103;49.492;8.474;2022-12-11T01:19:03;99997.56;;;1.71;70.74
6144;BME280;3103;49.492;8.474;2022-12-11T01:21:30;99994.25;;;1.63;70.85
6144;BME280;3103;49.492;8.474;2022-12-11T01:23:56;99990.13;;;1.32;71.68
6144;BME280;3103;49.492;8.474;2022-12-11T01:26:23;99993.78;;;1.31;72.06
6144;BME280;3103;49.492;8.474;2022-12-11T01:28:50;100000.22;;;1.71;70.18
6144;BME280;3103;49.492;8.474;2022-12-11T01:31:18;99998.91;;;1.61;70.85
6144;BME280;3103;49.492;8.474;2022-12-11T01:33:45;100002.88;;;1.50;71.31
6144;BME280;3103;49.492;8.474;2022-12-11T01:36:20;99990.44;;;1.23;72.54
6144;BME280;3103;49.492;8.474;2022-12-11T01:38:47;99988.13;;;1.13;72.53
6144;BME280;3103;49.492;8.474;2022-12-11T01:41:16;99992.25;;;1.43;71.97
6144;BME280;3103;49.492;8.474;2022-12-11T01:44:07;99999.22;;;1.51;70.53
6144;BME280;3103;49.492;8.474;2022-12-11T01:46:53;99999.75;;;1.18;72.21
6144;BME280;3103;49.492;8.474;2022-12-11T01:49:24;100002.53;;;1.32;71.53
6144;BME280;3103;49.492;8.474;2022-12-11T01:51:58;99981.63;;;1.15;72.91
6144;BME280;3103;49.492;8.474;2022-12-11T01:54:28;99974.03;;;1.34;73.54
6144;BME280;3103;49.492;8.474;2022-12-11T01:56:59;99985.66;;;1.61;71.81
6144;BME280;3103;49.492;8.474;2022-12-11T01:59:28;100005.44;;;1.65;71.33
6144;BME280;3103;49.492;8.474;2022-12-11T02:02:06;100016.25;;;1.21;72.15
6144;BME280;3103;49.492;8.474;2022-12-11T02:04:36;100010.41;;;1.25;73.19
6144;BME280;3103;49.492;8.474;2022-12-11T02:07:04;100010.09;;;1.35;72.47
6144;BME280;3103;49.492;8.474;2022-12-11T02:09:32;100012.69;;;1.28;72.41
6144;BME280;3103;49.492;8.474;2022-12-11T02:12:03;100019.22;;;1.11;72.75
6144;BME280;3103;49.492;8.474;2022-12-11T02:14:39;100014.69;;;1.26;72.75
6144;BME280;3103;49.492;8.474;2022-12-11T02:28:37;99998.47;;;0.72;74.40
6144;BME280;3103;49.492;8.474;2022-12-11T02:31:15;100003.72;;;0.86;74.29
6144;BME280;3103;49.492;8.474;2022-12-11T02:33:57;100005.19;;;0.74;74.46
6144;BME280;3103;49.492;8.474;2022-12-11T02:36:28;100008.19;;;1.07;75.03
6144;BME280;3103;49.492;8.474;2022-12-11T02:38:57;100007.28;;;1.15;73.64
6144;BME280;3103;49.492;8.474;2022-12-11T02:41:28;100007.47;;;1.13;74.94
6144;BME280;3103;49.492;8.474;2022-12-11T02:43:57;99999.38;;;1.22;73.77
6144;BME280;3103;49.492;8.474;2022-12-11T02:46:26;100007.69;;;1.18;73.99
6144;BME280;3103;49.492;8.474;2022-12-11T02:48:56;99997.66;;;1.57;71.86
6144;BME280;3103;49.492;8.474;2022-12-11T02:51:27;99998.50;;;1.36;71.65
6144;BME280;3103;49.492;8.474;2022-12-11T02:53:57;99999.22;;;1.51;71.27
6144;BME280;3103;49.492;8.474;2022-12-11T02:56:29;99996.63;;;1.30;70.59
6144;BME280;3103;49.492;8.474;2022-12-11T02:59:05;99994.59;;;1.10;71.78
6144;BME280;3103;49.492;8.474;2022-12-11T03:01:34;99997.91;;;0.98;72.16
6144;BME280;3103;49.492;8.474;2022-12-11T03:04:01;100007.19;;;1.30;71.58
6144;BME280;3103;49.492;8.474;2022-12-11T03:06:36;100007.00;;;1.10;72.06
6144;BME280;3103;49.492;8.474;2022-12-11T03:09:04;100006.56;;;1.28;72.36
6144;BME280;3103;49.492;8.474;2022-12-11T03:11:32;100002.53;;;1.32;72.00
6144;BME280;3103;49.492;8.474;2022-12-11T03:13:59;100003.41;;;1.17;72.47
6144;BME280;3103;49.492;8.474;2022-12-11T03:16:37;100000.19;;;1.22;72.32
6144;BME280;3103;49.492;8.474;2022-12-11T03:19:11;100009.44;;;1.11;72.77
6144;BME280;3103;49.492;8.474;2022-12-11T03:24:43;99997.75;;;0.99;73.42
6144;BME280;3103;49.492;8.474;2022-12-11T03:27:18;99994.09;;;1.00;73.52
6144;BME280;3103;49.492;8.474;2022-12-11T03:29:58;99996.78;;;1.07;73.21
6144;BME280;3103;49.492;8.474;2022-12-11T03:32:30;99995.34;;;1.04;73.74
6144;BME280;3103;49.492;8.474;2022-12-11T03:35:13;100003.34;;;1.11;73.48
6144;BME280;3103;49.492;8.474;2022-12-11T03:37:43;100017.38;;;0.90;72.96
6144;BME280;3103;49.492;8.474;2022-12-11T03:40:15;100014.69;;;1.26;71.97
6144;BME280;3103;49.492;8.474;2022-12-11T03:42:44;100007.91;;;1.17;72.33
6144;BME280;3103;49.492;8.474;2022-12-11T03:45:13;100018.47;;;1.60;71.80
6144;BME280;3103;49.492;8.474;2022-12-11T03:47:42;100021.09;;;1.38;72.90
6144;BME280;3103;49.492;8.474;2022-12-11T03:50:11;100017.53;;;1.25;74.39
6144;BME280;3103;49.492;8.474;2022-12-11T03:52:41;100014.25;;;1.44;73.44
6144;BME280;3103;49.492;8.474;2022-12-11T03:55:13;100019.34;;;1.45;73.09
6144;BME280;3103;49.492;8.474;2022-12-11T03:57:42;100004.41;;;1.38;73.72
6144;BME280;3103;49.492;8.474;2022-12-11T04:00:12;100009.91;;;1.58;73.66
6144;BME280;3103;49.492;8.474;2022-12-11T04:02:40;100008.72;;;1.67;72.84
6144;BME280;3103;49.492;8.474;2022-12-11T04:05:09;100016.72;;;1.45;73.37
6144;BME280;3103;49.492;8.474;2022-12-11T04:07:36;100003.81;;;1.14;75.20
6144;BME280;3103;49.492;8.474;2022-12-11T04:10:03;100002.78;;;1.15;76.45
6144;BME280;3103;49.492;8.474;2022-12-11T04:12:30;100007.94;;;1.24;76.54
6144;BME280;3103;49.492;8.474;2022-12-11T04:14:57;100012.31;;;1.31;76.87
6144;BME280;3103;49.492;8.474;2022-12-11T04:17:32;100010.00;;;1.71;75.72
6144;BME280;3103;49.492;8.474;2022-12-11T04:20:18;99999.44;;;1.49;75.54
6144;BME280;3103;49.492;8.474;2022-12-11T04:23:11;100006.06;;;1.17;76.45
6144;BME280;3103;49.492;8.474;2022-12-11T04:26:07;100004.38;;;1.31;76.57
6144;BME280;3103;49.492;8.474;2022-12-11T04:28:35;100011.28;;;1.32;76.25
6144;BME280;3103;49.492;8.474;2022-12-11T04:31:02;99990.38;;;1.65;76.83
6144;BME280;3103;49.492;8.474;2022-12-11T04:33:29;99999.13;;;1.38;77.28
6144;BME280;3103;49.492;8.474;2022-12-11T04:35:58;99992.63;;;1.19;78.14
6144;BME280;3103;49.492;8.474;2022-12-11T04:38:25;100003.16;;;1.34;77.71
6144;BME280;3103;49.492;8.474;2022-12-11T04:40:59;99996.03;;;1.34;77.99
6144;BME280;3103;49.492;8.474;2022-12-11T04:43:26;100004.72;;;1.49;77.27
6144;BME280;3103;49.492;8.474;2022-12-11T04:46:06;100007.94;;;1.45;76.38
6144;BME280;3103;49.492;8.474;2022-12-11T04:48:34;99995.66;;;1.16;77.70
6144;BME280;3103;49.492;8.474;2022-12-11T04:51:01;100000.34;;;1.14;77.93
6144;BME280;3103;49.492;8.474;2022-12-11T04:53:28;99995.34;;;1.26;78.51
6144;BME280;3103;49.492;8.474;2022-12-11T04:55:55;99988.97;;;1.20;78.22
6144;BME280;3103;49.492;8.474;2022-12-11T04:58:23;99995.59;;;1.31;78.92
6144;BME280;3103;49.492;8.474;2022-12-11T05:00:51;99989.97;;;1.40;77.77
6144;BME280;3103;49.492;8.474;2022-12-11T05:03:18;99988.41;;;1.25;77.65
6144;BME280;3103;49.492;8.474;2022-12-11T05:05:47;99987.28;;;1.12;78.50
6144;BME280;3103;49.492;8.474;2022-12-11T05:08:15;99983.00;;;1.11;78.89
6144;BME280;3103;49.492;8.474;2022-12-11T05:10:42;99982.88;;;1.19;79.04
6144;BME280;3103;49.492;8.474;2022-12-11T05:13:15;99993.06;;;1.23;78.51
6144;BME280;3103;49.492;8.474;2022-12-11T05:15:42;99998.16;;;1.24;78.28
6144;BME280;3103;49.492;8.474;2022-12-11T05:18:09;99991.78;;;0.76;79.26
6144;BME280;3103;49.492;8.474;2022-12-11T05:20:36;99986.44;;;1.12;78.48
6144;BME280;3103;49.492;8.474;2022-12-11T05:23:02;99984.63;;;1.12;78.83
6144;BME280;3103;49.492;8.474;2022-12-11T05:25:30;99982.06;;;1.19;78.25
6144;BME280;3103;49.492;8.474;2022-12-11T05:27:56;99974.19;;;1.04;78.35
6144;BME280;3103;49.492;8.474;2022-12-11T05:30:23;99969.81;;;0.75;78.95
6144;BME280;3103;49.492;8.474;2022-12-11T05:32:50;99977.44;;;1.49;76.64
6144;BME280;3103;49.492;8.474;2022-12-11T05:35:17;99967.09;;;1.11;78.12
6144;BME280;3103;49.492;8.474;2022-12-11T05:37:44;99971.63;;;1.39;76.08
6144;BME280;3103;49.492;8.474;2022-12-11T05:40:11;99970.47;;;0.99;77.25
6144;BME280;3103;49.492;8.474;2022-12-11T05:42:39;99975.44;;;1.30;76.68
6144;BME280;3103;49.492;8.474;2022-12-11T05:45:06;99980.88;;;1.00;77.81
6144;BME280;3103;49.492;8.474;2022-12-11T05:47:33;99975.16;;;0.82;79.63
6144;BME280;3103;49.492;8.474;2022-12-11T05:49:59;99982.50;;;1.01;79.34
6144;BME280;3103;49.492;8.474;2022-12-11T05:52:26;99978.63;;;0.82;78.36
6144;BME280;3103;49.492;8.474;2022-12-11T05:54:53;99982.50;;;0.65;79.92
6144;BME280;3103;49.492;8.474;2022-12-11T05:57:20;99971.66;;;0.96;79.27
6144;BME280;3103;49.492;8.474;2022-12-11T05:59:47;99967.03;;;1.26;76.43
6144;BME280;3103;49.492;8.474;2022-12-11T06:02:14;99974.50;;;1.16;76.88
6144;BME280;3103;49.492;8.474;2022-12-11T06:04:40;99963.28;;;0.93;77.01
6144;BME280;3103;49.492;8.474;2022-12-11T06:07:07;99966.22;;;0.83;77.51
6144;BME280;3103;49.492;8.474;2022-12-11T06:09:34;99966.16;;;0.76;78.26
6144;BME280;3103;49.492;8.474;2022-12-11T06:12:00;99963.66;;;0.53;79.20
6144;BME280;3103;49.492;8.474;2022-12-11T06:14:27;99969.38;;;0.72;79.55
6144;BME280;3103;49.492;8.474;2022-12-11T06:16:54;99962.50;;;0.77;79.21
6144;BME280;3103;49.492;8.474;2022-12-11T06:19:24;99965.09;;;0.71;78.83
6144;BME280;3103;49.492;8.474;2022-12-11T06:22:03;99954.19;;;0.59;78.83
6144;BME280;3103;49.492;8.474;2022-12-11T06:24:30;99955.53;;;0.19;80.86
6144;BME280;3103;49.492;8.474;2022-12-11T06:26:57;99949.13;;;-0.02;81.88
6144;BME280;3103;49.492;8.474;2022-12-11T06:29:23;99955.72;;;0.53;79.94
6144;BME280;3103;49.492;8.474;2022-12-11T06:31:50;99945.59;;;0.06;81.22
6144;BME280;3103;49.492;8.474;2022-12-11T06:34:17;99936.59;;;0.01;82.41
6144;BME280;3103;49.492;8.474;2022-12-11T06:36:44;99935.75;;;0.15;83.20
6144;BME280;3103;49.492;8.474;2022-12-11T06:39:11;99947.03;;;0.23;80.99
6144;BME280;3103;49.492;8.474;2022-12-11T06:41:37;99945.94;;;0.33;81.09
6144;BME280;3103;49.492;8.474;2022-12-11T06:44:04;99953.75;;;0.41;81.51
6144;BME280;3103;49.492;8.474;2022-12-11T06:46:31;99946.81;;;0.40;80.90
6144;BME280;3103;49.492;8.474;2022-12-11T06:48:58;99943.50;;;0.02;81.74
6144;BME280;3103;49.492;8.474;2022-12-11T06:51:26;99946.31;;;0.29;79.98
6144;BME280;3103;49.492;8.474;2022-12-11T06:53:55;99941.75;;;0.23;80.66
6144;BME280;3103;49.492;8.474;2022-12-11T06:56:23;99940.75;;;0.24;82.29
6144;BME280;3103;49.492;8.474;2022-12-11T06:58:50;99941.34;;;0.41;82.32
6144;BME280;3103;49.492;8.474;2022-12-11T07:01:18;99945.31;;;0.31;81.57
6144;BME280;3103;49.492;8.474;2022-12-11T07:03:45;99946.53;;;0.49;81.66
6144;BME280;3103;49.492;8.474;2022-12-11T07:06:13;99936.47;;;0.23;81.40
6144;BME280;3103;49.492;8.474;2022-12-11T07:08:40;99945.91;;;0.47;81.18
6144;BME280;3103;49.492;8.474;2022-12-11T07:11:12;99943.78;;;0.07;81.15
6144;BME280;3103;49.492;8.474;2022-12-11T07:13:40;99948.47;;;0.26;81.67
6144;BME280;3103;49.492;8.474;2022-12-11T07:16:09;99959.88;;;0.77;80.39
6144;BME280;3103;49.492;8.474;2022-12-11T07:18:38;99960.38;;;0.87;80.22
6144;BME280;3103;49.492;8.474;2022-12-11T07:21:07;99958.41;;;0.75;79.66
6144;BME280;3103;49.492;8.474;2022-12-11T07:23:34;99953.81;;;0.62;79.59
6144;BME280;3103;49.492;8.474;2022-12-11T07:26:05;99968.72;;;0.70;79.85
6144;BME280;3103;49.492;8.474;2022-12-11T07:28:33;99961.66;;;0.55;79.68
6144;BME280;3103;49.492;8.474;2022-12-11T07:31:15;99962.81;;;1.10;76.75
6144;BME280;3103;49.492;8.474;2022-12-11T07:33:42;99963.78;;;0.45;78.22
6144;BME280;3103;49.492;8.474;2022-12-11T07:36:11;99963.16;;;0.43;78.70
6144;BME280;3103;49.492;8.474;2022-12-11T07:38:39;99970.50;;;0.84;76.77
6144;BME280;3103;49.492;8.474;2022-12-11T07:41:11;99960.34;;;0.30;78.98
6144;BME280;3103;49.492;8.474;2022-12-11T07:43:40;99962.25;;;0.21;79.96
6144;BME280;3103;49.492;8.474;2022-12-11T07:46:14;99967.31;;;0.52;80.60
6144;BME280;3103;49.492;8.474;2022-12-11T07:48:42;99970.88;;;0.59;80.31
6144;BME280;3103;49.492;8.474;2022-12-11T07:51:15;99971.50;;;0.62;79.57
6144;BME280;3103;49.492;8.474;2022-12-11T07:53:44;99972.34;;;0.47;79.37
6144;BME280;3103;49.492;8.474;2022-12-11T07:56:11;99982.25;;;0.60;78.59
6144;BME280;3103;49.492;8.474;2022-12-11T07:58:38;99983.97;;;0.53;79.34
6144;BME280;3103;49.492;8.474;2022-12-11T08:01:22;99974.16;;;0.47;79.51
6144;BME280;3103;49.492;8.474;2022-12-11T08:03:49;99977.66;;;0.69;78.88
6144;BME280;3103;49.492;8.474;2022-12-11T08:06:16;99973.56;;;1.02;77.20
6144;BME280;3103;49.492;8.474;2022-12-11T08:08:46;99969.19;;;0.95;77.69
6144;BME280;3103;49.492;8.474;2022-12-11T08:11:14;99974.81;;;1.06;77.61
6144;BME280;3103;49.492;8.474;2022-12-11T08:13:41;99969.75;;;0.90;77.71
6144;BME280;3103;49.492;8.474;2022-12-11T08:16:13;99971.53;;;1.04;77.81
6144;BME280;3103;49.492;8.474;2022-12-11T08:18:41;99976.88;;;1.11;77.82
6144;BME280;3103;49.492;8.474;2022-12-11T08:21:10;99978.97;;;1.15;77.30
6144;BME280;3103;49.492;8.474;2022-12-11T08:23:38;99973.94;;;0.99;76.96
6144;BME280;3103;49.492;8.474;2022-12-11T08:26:10;99979.47;;;1.04;77.38
6144;BME280;3103;49.492;8.474;2022-12-11T08:28:38;99974.38;;;0.67;78.03
6144;BME280;3103;49.492;8.474;2022-12-11T08:31:07;99972.16;;;0.85;76.94
6144;BME280;3103;49.492;8.474;2022-12-11T08:33:36;99973.28;;;0.97;77.30
6144;BME280;3103;49.492;8.474;2022-12-11T08:36:05;99970.66;;;1.18;77.09
6144;BME280;3103;49.492;8.474;2022-12-11T08:38:33;99969.06;;;1.45;75.45
6144;BME280;3103;49.492;8.474;2022-12-11T08:41:19;99974.25;;;1.32;76.33
6144;BME280;3103;49.492;8.474;2022-12-11T08:43:48;99971.78;;;1.31;76.67
6144;BME280;3103;49.492;8.474;2022-12-11T08:46:15;99981.78;;;1.57;75.77
6144;BME280;3103;49.492;8.474;2022-12-11T08:48:42;99979.38;;;1.40;75.01
6144;BME280;3103;49.492;8.474;2022-12-11T08:51:15;99984.44;;;1.35;76.63
6144;BME280;3103;49.492;8.474;2022-12-11T08:53:43;99986.25;;;0.92;77.23
6144;BME280;3103;49.492;8.474;2022-12-11T08:56:14;99981.25;;;1.18;77.02
6144;BME280;3103;49.492;8.474;2022-12-11T08:58:41;99981.59;;;1.37;75.94
6144;BME280;3103;49.492;8.474;2022-12-11T09:01:14;99977.22;;;1.51;74.87
6144;BME280;3103;49.492;8.474;2022-12-11T09:03:41;99979.41;;;1.19;76.51
6144;BME280;3103;49.492;8.474;2022-12-11T09:06:10;99973.91;;;1.21;77.20
6144;BME280;3103;49.492;8.474;2022-12-11T09:08:38;99980.47;;;1.46;76.95
6144;BME280;3103;49.492;8.474;2022-12-11T09:11:08;99976.09;;;1.38;76.90
6144;BME280;3103;49.492;8.474;2022-12-11T09:13:37;99975.16;;;1.46;77.05
6144;BME280;3103;49.492;8.474;2022-12-11T09:16:10;99972.16;;;1.28;76.66
6144;BME280;3103;49.492;8.474;2022-12-11T09:18:38;99978.19;;;1.43;76.65
6144;BME280;3103;49.492;8.474;2022-12-11T09:21:08;99978.03;;;1.51;76.50
6144;BME280;3103;49.492;8.474;2022-12-11T09:23:35;99964.19;;;1.49;76.50
6144;BME280;3103;49.492;8.474;2022-12-11T09:26:04;99971.16;;;1.29;76.83
6144;BME280;3103;49.492;8.474;2022-12-11T09:28:32;99971.72;;;1.24;77.71
6144;BME280;3103;49.492;8.474;2022-12-11T09:30:59;99972.66;;;1.38;77.21
6144;BME280;3103;49.492;8.474;2022-12-11T09:33:26;99976.81;;;1.47;77.50
6144;BME280;3103;49.492;8.474;2022-12-11T09:35:57;99975.38;;;1.44;76.95
6144;BME280;3103;49.492;8.474;2022-12-11T09:38:25;99974.16;;;1.47;76.46
6144;BME280;3103;49.492;8.474;2022-12-11T09:40:52;99973.66;;;1.93;76.02
6144;BME280;3103;49.492;8.474;2022-12-11T09:43:38;99971.09;;;1.71;76.34
6144;BME280;3103;49.492;8.474;2022-12-11T09:46:13;99966.72;;;1.36;76.75
6144;BME280;3103;49.492;8.474;2022-12-11T09:48:43;99970.69;;;1.46;76.21
6144;BME280;3103;49.492;8.474;2022-12-11T09:51:18;99973.19;;;1.55;77.02
6144;BME280;3103;49.492;8.474;2022-12-11T09:53:46;99958.38;;;1.60;76.50
6144;BME280;3103;49.492;8.474;2022-12-11T09:56:24;99966.03;;;1.76;76.09
6144;BME280;3103;49.492;8.474;2022-12-11T09:59:21;99963.16;;;1.71;75.71
6144;BME280;3103;49.492;8.474;2022-12-11T10:02:15;99968.38;;;1.93;75.87
6144;BME280;3103;49.492;8.474;2022-12-11T10:07:18;99958.22;;;1.68;75.05
6144;BME280;3103;49.492;8.474;2022-12-11T10:09:58;99957.28;;;1.83;75.73
6144;BME280;3103;49.492;8.474;2022-12-11T10:15:17;99945.25;;;2.15;74.12
6144;BME280;3103;49.492;8.474;2022-12-11T10:17:46;99947.78;;;1.95;74.54
6144;BME280;3103;49.492;8.474;2022-12-11T10:20:28;99952.44;;;1.86;75.71
6144;BME280;3103;49.492;8.474;2022-12-11T10:23:05;99955.41;;;1.70;77.08
6144;BME280;3103;49.492;8.474;2022-12-11T10:26:05;99959.19;;;1.89;75.73
6144;BME280;3103;49.492;8.474;2022-12-11T10:28:33;99957.03;;;2.05;75.32
6144;BME280;3103;49.492;8.474;2022-12-11T10:31:31;99949.34;;;2.17;74.37
6144;BME280;3103;49.492;8.474;2022-12-11T10:34:12;99957.84;;;2.06;74.24
6144;BME280;3103;49.492;8.474;2022-12-11T10:36:42;99941.94;;;1.99;74.52
6144;BME280;3103;49.492;8.474;2022-12-11T10:39:17;99931.72;;;1.68;76.04
6144;BME280;3103;49.492;8.474;2022-12-11T10:41:49;99920.19;;;1.76;77.11
6144;BME280;3103;49.492;8.474;2022-12-11T10:44:28;99921.75;;;2.05;76.00
6144;BME280;3103;49.492;8.474;2022-12-11T10:47:04;99922.84;;;1.83;76.46
6144;BME280;3103;49.492;8.474;2022-12-11T10:49:34;99925.22;;;1.99;75.80
6144;BME280;3103;49.492;8.474;2022-12-11T10:52:09;99919.25;;;1.97;75.29
6144;BME280;3103;49.492;8.474;2022-12-11T10:54:41;99915.78;;;2.37;74.46
6144;BME280;3103;49.492;8.474;2022-12-11T10:57:10;99923.72;;;1.90;75.74
6144;BME280;3103;49.492;8.474;2022-12-11T10:59:46;99919.84;;;1.92;75.20
6144;BME280;3103;49.492;8.474;2022-12-11T11:02:35;99909.16;;;2.14;74.89
6144;BME280;3103;49.492;8.474;2022-12-11T11:05:25;99908.56;;;2.18;73.77
6144;BME280;3103;49.492;8.474;2022-12-11T11:08:22;99913.28;;;2.23;73.40
6144;BME280;3103;49.492;8.474;2022-12-11T11:10:58;99906.53;;;2.20;72.82
6144;BME280;3103;49.492;8.474;2022-12-11T11:13:27;99890.00;;;2.12;72.90
6144;BME280;3103;49.492;8.474;2022-12-11T11:15:59;99896.75;;;2.14;72.68
6144;BME280;3103;49.492;8.474;2022-12-11T11:18:28;99887.56;;;2.17;72.97
6144;BME280;3103;49.492;8.474;2022-12-11T11:20:55;99885.47;;;1.99;73.88
6144;BME280;3103;49.492;8.474;2022-12-11T11:23:23;99889.81;;;2.13;74.01
6144;BME280;3103;49.492;8.474;2022-12-11T11:25:55;99892.28;;;2.21;73.50
6144;BME280;3103;49.492;8.474;2022-12-11T11:28:26;99885.53;;;2.12;73.89
6144;BME280;3103;49.492;8.474;2022-12-11T11:31:03;99888.88;;;2.47;73.51
6144;BME280;3103;49.492;8.474;2022-12-11T11:33:33;99881.50;;;2.29;72.40
6144;BME280;3103;49.492;8.474;2022-12-11T11:36:04;99881.84;;;2.13;73.56
6144;BME280;3103;49.492;8.474;2022-12-11T11:38:46;99877.63;;;2.25;73.82
6144;BME280;3103;49.492;8.474;2022-12-11T11:41:20;99870.81;;;2.09;74.21
6144;BME280;3103;49.492;8.474;2022-12-11T11:43:58;99880.44;;;2.24;74.30
6144;BME280;3103;49.492;8.474;2022-12-11T11:46:36;99868.16;;;2.09;73.02
6144;BME280;3103;49.492;8.474;2022-12-11T11:49:24;99871.63;;;2.03;73.70
6144;BME280;3103;49.492;8.474;2022-12-11T11:52:00;99864.53;;;2.17;73.43
6144;BME280;3103;49.492;8.474;2022-12-11T11:54:35;99872.59;;;2.57;72.66
6144;BME280;3103;49.492;8.474;2022-12-11T11:57:16;99867.63;;;2.34;72.91
6144;BME280;3103;49.492;8.474;2022-12-11T11:59:51;99868.66;;;2.26;74.30
6144;BME280;3103;49.492;8.474;2022-12-11T12:02:20;99875.13;;;2.17;74.53
6144;BME280;3103;49.492;8.474;2022-12-11T12:04:47;99867.19;;;2.24;73.79
6144;BME280;3103;49.492;8.474;2022-12-11T12:07:32;99870.50;;;2.32;73.21
6144;BME280;3103;49.492;8.474;2022-12-11T12:12:53;99871.53;;;2.38;76.23
6144;BME280;3103;49.492;8.474;2022-12-11T12:15:37;99874.28;;;2.91;75.06
6144;BME280;3103;49.492;8.474;2022-12-11T12:18:18;99873.44;;;2.71;75.12
6144;BME280;3103;49.492;8.474;2022-12-11T12:20:59;99870.16;;;2.55;75.18
6144;BME280;3103;49.492;8.474;2022-12-11T12:26:16;99875.34;;;2.22;74.51
6144;BME280;3103;49.492;8.474;2022-12-11T12:28:57;99863.41;;;2.66;74.20
6144;BME280;3103;49.492;8.474;2022-12-11T12:43:36;99865.63;;;2.49;73.14
6144;BME280;3103;49.492;8.474;2022-12-11T12:49:01;99861.94;;;2.37;72.95
6144;BME280;3103;49.492;8.474;2022-12-11T12:51:28;99856.69;;;2.57;72.33
6144;BME280;3103;49.492;8.474;2022-12-11T12:54:01;99856.59;;;2.24;73.13
6144;BME280;3103;49.492;8.474;2022-12-11T12:56:37;99852.91;;;2.25;73.09
6144;BME280;3103;49.492;8.474;2022-12-11T13:01:49;99855.22;;;2.41;73.06
6144;BME280;3103;49.492;8.474;2022-12-11T13:04:34;99836.88;;;2.53;74.21
6144;BME280;3103;49.492;8.474;2022-12-11T13:07:25;99841.19;;;2.54;74.40
6144;BME280;3103;49.492;8.474;2022-12-11T13:09:59;99842.81;;;2.61;73.74
6144;BME280;3103;49.492;8.474;2022-12-11T13:12:32;99840.78;;;2.63;74.20
6144;BME280;3103;49.492;8.474;2022-12-11T13:14:59;99839.16;;;2.62;73.40
6144;BME280;3103;49.492;8.474;2022-12-11T13:17:37;99839.53;;;2.53;74.47
6144;BME280;3103;49.492;8.474;2022-12-11T13:20:18;99835.69;;;2.75;74.11
6144;BME280;3103;49.492;8.474;2022-12-11T13:25:49;99828.13;;;2.65;73.78
6144;BME280;3103;49.492;8.474;2022-12-11T13:28:44;99843.66;;;2.88;72.47
6144;BME280;3103;49.492;8.474;2022-12-11T13:31:23;99839.16;;;2.95;71.64
6144;BME280;3103;49.492;8.474;2022-12-11T13:33:55;99843.03;;;2.80;71.75
6144;BME280;3103;49.492;8.474;2022-12-11T13:36:26;99849.38;;;2.72;72.96
6144;BME280;3103;49.492;8.474;2022-12-11T13:39:05;99847.34;;;2.87;71.57
6144;BME280;3103;49.492;8.474;2022-12-11T13:41:35;99849.56;;;2.77;71.90
6144;BME280;3103;49.492;8.474;2022-12-11T13:44:04;99853.63;;;2.60;72.59
6144;BME280;3103;49.492;8.474;2022-12-11T13:46:34;99857.09;;;2.67;73.13
6144;BME280;3103;49.492;8.474;2022-12-11T13:49:05;99860.41;;;2.82;72.84
6144;BME280;3103;49.492;8.474;2022-12-11T13:51:33;99856.31;;;2.73;72.92
6144;BME280;3103;49.492;8.474;2022-12-11T13:54:14;99860.59;;;2.81;71.72
6144;BME280;3103;49.492;8.474;2022-12-11T13:57:11;99854.28;;;2.82;71.96
6144;BME280;3103;49.492;8.474;2022-12-11T13:59:45;99857.50;;;2.64;72.67
6144;BME280;3103;49.492;8.474;2022-12-11T14:02:18;99857.53;;;2.84;71.85
6144;BME280;3103;49.492;8.474;2022-12-11T14:04:48;99863.88;;;2.89;72.41
6144;BME280;3103;49.492;8.474;2022-12-11T14:07:25;99861.59;;;2.73;72.53
6144;BME280;3103;49.492;8.474;2022-12-11T14:09:57;99864.84;;;2.55;73.06
6144;BME280;3103;49.492;8.474;2022-12-11T14:12:27;99869.91;;;2.44;73.00
6144;BME280;3103;49.492;8.474;2022-12-11T14:14:56;99875.06;;;2.78;71.36
6144;BME280;3103;49.492;8.474;2022-12-11T14:17:25;99867.34;;;2.96;69.45
6144;BME280;3103;49.492;8.474;2022-12-11T14:19:55;99871.03;;;2.82;70.51
6144;BME280;3103;49.492;8.474;2022-12-11T14:22:25;99869.19;;;2.83;69.60
6144;BME280;3103;49.492;8.474;2022-12-11T14:24:58;99873.00;;;2.67;70.07
6144;BME280;3103;49.492;8.474;2022-12-11T14:27:26;99881.94;;;2.40;71.17
6144;BME280;3103;49.492;8.474;2022-12-11T14:29:53;99880.72;;;2.49;72.02
6144;BME280;3103;49.492;8.474;2022-12-11T14:32:31;99877.03;;;2.36;71.82
6144;BME280;3103;49.492;8.474;2022-12-11T14:35:03;99876.25;;;2.49;71.71
6144;BME280;3103;49.492;8.474;2022-12-11T14:37:33;99882.00;;;2.66;71.23
6144;BME280;3103;49.492;8.474;2022-12-11T14:40:05;99880.16;;;2.60;71.15